createdAt,value
2018-09-15T00:00:30.504Z,18.10
2018-09-15T00:02:58.748Z,13.70
2018-09-15T00:05:26.929Z,14.90
2018-09-15T00:07:55.134Z,14.83
2018-09-15T00:10:23.309Z,14.47
2018-09-15T00:12:51.602Z,12.37
2018-09-15T00:15:19.761Z,15.43
2018-09-15T00:17:48.377Z,17.20
2018-09-15T00:20:16.591Z,16.73
2018-09-15T00:22:44.824Z,14.73
2018-09-15T00:25:13.127Z,15.03
2018-09-15T00:27:41.422Z,13.53
2018-09-15T00:30:09.634Z,12.17
2018-09-15T00:32:37.845Z,16.60
2018-09-15T00:35:06.057Z,13.70
2018-09-15T00:37:34.279Z,12.03
2018-09-15T00:40:02.517Z,13.20
2018-09-15T00:42:30.676Z,10.97
2018-09-15T00:44:58.999Z,10.90
2018-09-15T00:47:27.177Z,12.07
2018-09-15T00:49:55.369Z,10.13
2018-09-15T00:52:23.551Z,11.20
2018-09-15T00:54:51.773Z,11.70
2018-09-15T00:57:19.985Z,9.10
2018-09-15T00:59:48.210Z,9.07
2018-09-15T01:02:16.393Z,12.23
2018-09-15T01:04:44.606Z,8.53
2018-09-15T01:07:12.779Z,13.90
2018-09-15T01:09:40.985Z,7.80
2018-09-15T01:12:09.168Z,7.00
2018-09-15T01:14:37.737Z,7.60
2018-09-15T01:17:05.936Z,9.33
2018-09-15T01:19:34.152Z,10.73
2018-09-15T01:22:02.348Z,8.87
2018-09-15T01:24:30.552Z,9.10
2018-09-15T01:26:58.874Z,6.63
2018-09-15T01:29:27.156Z,6.87
2018-09-15T01:31:55.461Z,5.63
2018-09-15T01:34:23.704Z,5.93
2018-09-15T01:36:51.904Z,9.00
2018-09-15T01:39:20.100Z,6.70
2018-09-15T01:41:48.322Z,6.80
2018-09-15T01:44:16.521Z,6.97
2018-09-15T01:46:44.681Z,6.07
2018-09-15T01:49:12.892Z,6.20
2018-09-15T01:51:41.064Z,6.40
2018-09-15T01:54:09.284Z,6.70
2018-09-15T01:56:37.462Z,8.10
2018-09-15T01:59:05.654Z,5.10
2018-09-15T02:01:33.868Z,8.33
2018-09-15T02:04:02.046Z,5.80
2018-09-15T02:06:30.257Z,5.53
2018-09-15T02:08:58.444Z,5.23
2018-09-15T02:11:26.638Z,6.80
2018-09-15T02:13:54.848Z,10.03
2018-09-15T02:16:23.041Z,7.77
2018-09-15T02:18:51.209Z,6.70
2018-09-15T02:21:19.400Z,8.47
2018-09-15T02:23:47.553Z,5.60
2018-09-15T02:26:15.750Z,8.83
2018-09-15T02:28:43.896Z,9.80
2018-09-15T02:31:12.113Z,4.20
2018-09-15T02:33:40.352Z,4.73
2018-09-15T02:36:08.553Z,6.33
2018-09-15T02:38:36.727Z,5.00
2018-09-15T02:41:05.021Z,5.93
2018-09-15T02:43:33.213Z,5.40
2018-09-15T02:46:01.437Z,8.93
2018-09-15T02:48:29.589Z,7.97
2018-09-15T02:50:57.801Z,4.27
2018-09-15T02:53:25.957Z,6.33
2018-09-15T02:55:54.157Z,4.37
2018-09-15T02:58:22.365Z,5.03
2018-09-15T03:00:50.706Z,4.37
2018-09-15T03:03:18.883Z,3.93
2018-09-15T03:05:47.083Z,4.17
2018-09-15T03:08:15.257Z,3.03
2018-09-15T03:10:43.490Z,5.20
2018-09-15T03:13:11.665Z,4.13
2018-09-15T03:15:39.868Z,4.87
2018-09-15T03:18:08.030Z,4.23
2018-09-15T03:20:36.241Z,3.27
2018-09-15T03:23:04.438Z,5.03
2018-09-15T03:25:32.597Z,4.77
2018-09-15T03:28:00.808Z,4.47
2018-09-15T03:30:28.997Z,4.90
2018-09-15T03:32:57.221Z,5.00
2018-09-15T03:35:25.513Z,4.40
2018-09-15T03:37:53.745Z,4.37
2018-09-15T03:40:21.893Z,8.03
2018-09-15T03:42:50.089Z,5.67
2018-09-15T03:45:18.233Z,9.60
2018-09-15T03:47:46.450Z,5.00
2018-09-15T03:50:14.629Z,4.93
2018-09-15T03:52:42.953Z,5.10
2018-09-15T03:55:11.173Z,7.23
2018-09-15T03:57:39.671Z,4.73
2018-09-15T04:00:07.889Z,4.20
2018-09-15T04:02:36.090Z,5.77
2018-09-15T04:05:04.299Z,5.87
2018-09-15T04:07:32.548Z,6.67
2018-09-15T04:10:00.714Z,4.90
2018-09-15T04:12:28.921Z,4.60
2018-09-15T04:14:57.097Z,3.80
2018-09-15T04:17:25.301Z,7.03
2018-09-15T04:19:53.493Z,5.13
2018-09-15T04:22:21.708Z,9.13
2018-09-15T04:24:49.868Z,9.03
2018-09-15T04:27:18.065Z,6.33
2018-09-15T04:29:46.239Z,4.00
2018-09-15T04:32:14.464Z,5.17
2018-09-15T04:34:42.709Z,3.87
2018-09-15T04:37:10.977Z,4.27
2018-09-15T04:39:39.216Z,4.80
2018-09-15T04:42:07.440Z,7.93
2018-09-15T04:44:35.601Z,7.57
2018-09-15T04:47:03.820Z,3.47
2018-09-15T04:49:32.017Z,6.10
2018-09-15T04:52:00.181Z,9.57
2018-09-15T04:54:28.367Z,15.03
2018-09-15T04:56:59.543Z,6.30
2018-09-15T04:59:27.736Z,5.50
2018-09-15T05:01:55.895Z,5.10
2018-09-15T05:04:24.106Z,5.90
2018-09-15T05:06:52.296Z,6.53
2018-09-15T05:09:20.683Z,6.07
2018-09-15T05:11:48.841Z,9.13
2018-09-15T05:14:17.058Z,7.17
2018-09-15T05:16:45.221Z,8.90
2018-09-15T05:19:13.482Z,7.10
2018-09-15T05:21:41.692Z,6.73
2018-09-15T05:24:09.876Z,8.53
2018-09-15T05:26:38.062Z,6.93
2018-09-15T05:29:06.252Z,6.47
2018-09-15T05:31:34.456Z,6.37
2018-09-15T05:34:02.666Z,6.10
2018-09-15T05:36:30.824Z,7.23
2018-09-15T05:38:59.011Z,9.83
2018-09-15T05:41:27.248Z,9.90
2018-09-15T05:43:55.817Z,14.37
2018-09-15T05:46:24.088Z,13.13
2018-09-15T05:48:52.592Z,18.60
2018-09-15T05:51:20.757Z,18.00
2018-09-15T05:53:48.940Z,18.20
2018-09-15T05:56:17.201Z,20.40
2018-09-15T05:58:45.456Z,25.40
2018-09-15T06:01:13.778Z,26.63
2018-09-15T06:03:41.983Z,25.20
2018-09-15T06:06:10.174Z,27.77
2018-09-15T06:08:38.418Z,27.97
2018-09-15T06:11:07.042Z,29.23
2018-09-15T06:13:35.863Z,25.43
2018-09-15T06:16:04.561Z,36.77
2018-09-15T06:18:33.219Z,34.60
2018-09-15T06:21:01.967Z,37.23
2018-09-15T06:23:30.617Z,36.73
2018-09-15T06:25:59.306Z,34.50
2018-09-15T06:28:27.929Z,39.60
2018-09-15T06:30:56.666Z,41.73
2018-09-15T06:33:25.633Z,39.63
2018-09-15T06:35:54.297Z,44.40
2018-09-15T06:38:22.971Z,40.57
2018-09-15T06:40:51.671Z,45.40
2018-09-15T06:43:19.874Z,43.53
2018-09-15T06:45:48.262Z,43.63
2018-09-15T06:48:16.442Z,47.10
2018-09-15T06:50:44.723Z,48.53
2018-09-15T06:53:12.905Z,47.00
2018-09-15T06:55:41.149Z,42.43
2018-09-15T06:58:09.957Z,39.17
2018-09-15T07:00:38.216Z,46.30
2018-09-15T07:03:06.433Z,36.47
2018-09-15T07:05:34.666Z,43.40
2018-09-15T07:08:02.854Z,42.40
2018-09-15T07:10:31.317Z,38.20
2018-09-15T07:12:59.561Z,41.73
2018-09-15T07:15:27.824Z,34.93
2018-09-15T07:17:56.084Z,39.60
2018-09-15T07:20:24.313Z,42.27
2018-09-15T07:22:52.558Z,39.90
2018-09-15T07:25:20.816Z,43.63
2018-09-15T07:27:49.012Z,36.03
2018-09-15T07:30:17.205Z,36.63
2018-09-15T07:32:45.377Z,33.67
2018-09-15T07:35:13.605Z,37.07
2018-09-15T07:37:41.842Z,36.00
2018-09-15T07:40:10.049Z,34.20
2018-09-15T07:42:38.261Z,32.87
2018-09-15T07:45:06.497Z,34.30
2018-09-15T07:47:34.777Z,40.70
2018-09-15T07:50:02.993Z,30.43
2018-09-15T07:52:31.198Z,40.00
2018-09-15T07:54:59.396Z,31.93
2018-09-15T07:57:27.694Z,35.37
2018-09-15T07:59:55.852Z,35.80
2018-09-15T08:02:24.124Z,37.07
2018-09-15T08:04:52.339Z,40.73
2018-09-15T08:07:20.596Z,36.20
2018-09-15T08:09:48.802Z,36.10
2018-09-15T08:12:18.009Z,34.37
2018-09-15T08:14:46.477Z,37.73
2018-09-15T08:17:14.703Z,33.67
2018-09-15T08:19:42.893Z,39.87
2018-09-15T08:22:11.132Z,37.30
2018-09-15T08:24:39.316Z,39.33
2018-09-15T08:27:08.049Z,37.80
2018-09-15T08:29:36.235Z,30.63
2018-09-15T08:32:04.546Z,38.33
2018-09-15T08:34:32.714Z,36.57
2018-09-15T08:37:00.936Z,32.17
2018-09-15T08:39:29.149Z,33.23
2018-09-15T08:41:57.377Z,34.60
2018-09-15T08:44:25.561Z,36.33
2018-09-15T08:46:53.801Z,33.37
2018-09-15T08:49:22.015Z,35.80
2018-09-15T08:51:50.233Z,33.30
2018-09-15T08:54:18.445Z,38.17
2018-09-15T08:56:46.629Z,38.20
2018-09-15T08:59:14.861Z,30.10
2018-09-15T09:01:43.093Z,31.10
2018-09-15T09:04:11.456Z,25.90
2018-09-15T09:06:39.664Z,29.80
2018-09-15T09:09:09.557Z,33.20
2018-09-15T09:11:37.761Z,28.40
2018-09-15T09:14:06.006Z,31.77
2018-09-15T09:16:34.393Z,29.30
2018-09-15T09:19:02.629Z,30.13
2018-09-15T09:21:30.814Z,26.37
2018-09-15T09:23:59.076Z,25.47
2018-09-15T09:26:27.346Z,27.60
2018-09-15T09:28:55.525Z,28.00
2018-09-15T09:31:23.704Z,28.03
2018-09-15T09:33:51.950Z,26.50
2018-09-15T09:36:20.113Z,29.97
2018-09-15T09:38:48.361Z,27.00
2018-09-15T09:41:16.580Z,28.67
2018-09-15T09:43:44.805Z,28.70
2018-09-15T09:46:13.015Z,22.77
2018-09-15T09:48:41.273Z,32.27
2018-09-15T09:51:09.470Z,21.40
2018-09-15T09:53:37.685Z,21.80
2018-09-15T09:56:06.328Z,22.60
2018-09-15T09:58:34.552Z,20.57
2018-09-15T10:01:08.320Z,18.07
2018-09-15T10:03:36.528Z,22.63
2018-09-15T10:06:04.710Z,23.00
2018-09-15T10:08:32.985Z,18.77
2018-09-15T10:11:01.169Z,24.50
2018-09-15T10:13:29.385Z,22.17
2018-09-15T10:15:57.639Z,21.33
2018-09-15T10:18:25.796Z,19.33
2018-09-15T10:20:53.993Z,19.17
2018-09-15T10:23:22.169Z,18.50
2018-09-15T10:25:50.384Z,19.33
2018-09-15T10:28:18.580Z,22.07
2018-09-15T10:30:46.805Z,19.70
2018-09-15T10:33:14.980Z,22.87
2018-09-15T10:35:43.185Z,19.47
2018-09-15T10:38:11.370Z,20.53
2018-09-15T10:40:39.589Z,19.13
2018-09-15T10:43:07.940Z,18.93
2018-09-15T10:45:36.297Z,20.73
2018-09-15T10:48:04.860Z,18.60
2018-09-15T10:50:33.164Z,19.50
2018-09-15T10:53:01.388Z,18.37
2018-09-15T10:55:29.597Z,18.47
2018-09-15T10:57:57.772Z,19.80
2018-09-15T11:00:26.143Z,18.53
2018-09-15T11:02:54.293Z,19.60
2018-09-15T11:05:22.546Z,19.70
2018-09-15T11:07:50.721Z,24.30
2018-09-15T11:10:18.938Z,15.73
2018-09-15T11:12:47.102Z,18.57
2018-09-15T11:15:15.325Z,15.80
2018-09-15T11:17:43.560Z,15.23
2018-09-15T11:20:11.813Z,17.20
2018-09-15T11:22:40.107Z,17.00
2018-09-15T11:25:08.627Z,14.37
2018-09-15T11:27:36.866Z,11.73
2018-09-15T11:30:05.625Z,13.57
2018-09-15T11:32:33.791Z,15.77
2018-09-15T11:35:02.436Z,15.50
2018-09-15T11:37:30.889Z,15.53
2018-09-15T11:39:59.108Z,19.10
2018-09-15T11:42:27.355Z,16.60
2018-09-15T11:44:55.822Z,14.50
2018-09-15T11:47:24.077Z,13.17
2018-09-15T11:49:52.487Z,18.37
2018-09-15T11:52:20.860Z,17.47
2018-09-15T11:54:49.118Z,16.37
2018-09-15T11:57:17.722Z,18.10
2018-09-15T11:59:46.201Z,17.57
2018-09-15T12:02:14.454Z,17.67
2018-09-15T12:04:42.649Z,19.40
2018-09-15T12:07:10.890Z,18.73
2018-09-15T12:09:39.116Z,18.40
2018-09-15T12:12:07.398Z,15.20
2018-09-15T12:14:35.576Z,16.83
2018-09-15T12:17:03.824Z,20.10
2018-09-15T12:19:32.009Z,16.60
2018-09-15T12:22:00.358Z,16.63
2018-09-15T12:24:28.569Z,19.37
2018-09-15T12:26:56.841Z,16.00
2018-09-15T12:29:25.035Z,17.63
2018-09-15T12:31:53.293Z,15.93
2018-09-15T12:34:21.554Z,15.97
2018-09-15T12:36:49.837Z,16.10
2018-09-15T12:39:18.088Z,17.50
2018-09-15T12:41:46.342Z,17.53
2018-09-15T12:44:14.569Z,14.73
2018-09-15T12:46:42.796Z,16.50
2018-09-15T12:49:11.009Z,17.37
2018-09-15T12:51:39.345Z,18.27
2018-09-15T12:54:07.643Z,16.77
2018-09-15T12:56:35.927Z,14.80
2018-09-15T12:59:04.218Z,17.00
2018-09-15T13:01:32.400Z,16.47
2018-09-15T13:04:00.689Z,21.53
2018-09-15T13:06:28.897Z,14.60
2018-09-15T13:08:57.130Z,15.83
2018-09-15T13:11:25.338Z,13.97
2018-09-15T13:13:53.565Z,13.97
2018-09-15T13:16:21.762Z,13.90
2018-09-15T13:18:49.989Z,12.63
2018-09-15T13:21:18.192Z,12.30
2018-09-15T13:23:46.504Z,11.43
2018-09-15T13:26:14.641Z,15.83
2018-09-15T13:28:42.921Z,12.23
2018-09-15T13:31:11.154Z,11.83
2018-09-15T13:33:39.408Z,11.17
2018-09-15T13:36:07.609Z,12.77
2018-09-15T13:38:35.901Z,12.63
2018-09-15T13:41:04.105Z,17.87
2018-09-15T13:43:32.350Z,12.00
2018-09-15T13:46:00.561Z,10.83
2018-09-15T13:48:28.781Z,11.67
2018-09-15T13:50:57.869Z,37.27
2018-09-15T13:53:26.249Z,10.33
2018-09-15T13:55:54.437Z,9.97
2018-09-15T13:58:22.748Z,10.93
2018-09-15T14:00:50.994Z,13.63
2018-09-15T14:03:19.252Z,16.30
2018-09-15T14:05:47.507Z,10.73
2018-09-15T14:08:15.727Z,10.80
2018-09-15T14:10:43.945Z,12.90
2018-09-15T14:13:12.170Z,10.40
2018-09-15T14:15:40.359Z,9.90
2018-09-15T14:18:08.656Z,9.03
2018-09-15T14:20:36.861Z,10.37
2018-09-15T14:23:05.045Z,11.67
2018-09-15T14:25:33.325Z,8.33
2018-09-15T14:28:01.887Z,11.23
2018-09-15T14:30:30.317Z,12.37
2018-09-15T14:32:58.545Z,11.00
2018-09-15T14:35:26.814Z,10.83
2018-09-15T14:37:55.022Z,11.03
2018-09-15T14:40:23.245Z,9.83
2018-09-15T14:42:51.485Z,11.03
2018-09-15T14:45:19.787Z,10.63
2018-09-15T14:47:48.005Z,8.33
2018-09-15T14:50:16.275Z,10.33
2018-09-15T14:52:44.493Z,11.97
2018-09-15T14:55:12.859Z,9.33
2018-09-15T14:57:40.968Z,9.33
2018-09-15T15:00:09.527Z,10.10
2018-09-15T15:02:37.872Z,10.10
2018-09-15T15:05:06.176Z,14.20
2018-09-15T15:07:34.693Z,11.03
2018-09-15T15:10:02.976Z,12.63
2018-09-15T15:12:31.245Z,12.77
2018-09-15T15:15:00.129Z,11.20
2018-09-15T15:17:28.340Z,11.27
2018-09-15T15:19:56.545Z,10.93
2018-09-15T15:22:24.757Z,11.43
2018-09-15T15:24:52.974Z,12.03
2018-09-15T15:27:21.153Z,11.80
2018-09-15T15:29:49.361Z,10.60
2018-09-15T15:32:17.547Z,10.73
2018-09-15T15:34:45.765Z,10.77
2018-09-15T15:37:13.937Z,10.03
2018-09-15T15:39:42.161Z,9.50
2018-09-15T15:42:10.398Z,11.60
2018-09-15T15:44:38.634Z,9.80
2018-09-15T15:47:06.854Z,14.73
2018-09-15T15:49:35.163Z,13.30
2018-09-15T15:52:03.500Z,9.60
2018-09-15T15:54:31.712Z,9.40
2018-09-15T15:57:00.004Z,9.70
2018-09-15T15:59:28.253Z,8.17
2018-09-15T16:01:56.537Z,9.30
2018-09-15T16:04:24.770Z,9.30
2018-09-15T16:06:52.976Z,8.90
2018-09-15T16:09:21.287Z,10.67
2018-09-15T16:11:49.554Z,8.23
2018-09-15T16:14:17.718Z,9.30
2018-09-15T16:16:45.929Z,9.27
2018-09-15T16:19:14.489Z,14.93
2018-09-15T16:21:42.710Z,17.37
2018-09-15T16:24:11.138Z,12.03
2018-09-15T16:26:39.409Z,9.07
2018-09-15T16:29:07.630Z,13.30
2018-09-15T16:31:35.897Z,9.30
2018-09-15T16:34:04.111Z,20.43
2018-09-15T16:36:32.339Z,9.03
2018-09-15T16:39:00.670Z,9.17
2018-09-15T16:41:28.894Z,9.20
2018-09-15T16:43:57.101Z,9.17
2018-09-15T16:46:25.327Z,7.03
2018-09-15T16:48:53.524Z,8.63
2018-09-15T16:51:21.811Z,10.30
2018-09-15T16:53:50.228Z,7.97
2018-09-15T16:56:18.485Z,11.90
2018-09-15T16:58:46.705Z,10.50
2018-09-15T17:01:14.932Z,8.87
2018-09-15T17:03:43.149Z,8.30
2018-09-15T17:06:11.446Z,7.83
2018-09-15T17:08:39.714Z,15.33
2018-09-15T17:11:08.017Z,8.73
2018-09-15T17:13:36.236Z,11.37
2018-09-15T17:16:04.475Z,9.90
2018-09-15T17:18:32.852Z,13.57
2018-09-15T17:21:01.024Z,10.07
2018-09-15T17:23:29.409Z,11.13
2018-09-15T17:25:57.641Z,11.10
2018-09-15T17:28:25.865Z,19.03
2018-09-15T17:30:54.184Z,9.90
2018-09-15T17:33:22.424Z,12.63
2018-09-15T17:35:50.628Z,16.10
2018-09-15T17:38:18.865Z,9.17
2018-09-15T17:40:47.076Z,9.80
2018-09-15T17:43:15.466Z,13.00
2018-09-15T17:45:43.745Z,20.73
2018-09-15T17:48:11.956Z,12.57
2018-09-15T17:50:40.186Z,11.10
2018-09-15T17:53:08.602Z,8.73
2018-09-15T17:55:36.834Z,10.63
2018-09-15T17:58:05.321Z,9.43
2018-09-15T18:00:33.517Z,15.40
2018-09-15T18:03:01.732Z,9.80
2018-09-15T18:05:29.985Z,9.20
2018-09-15T18:07:58.282Z,9.67
2018-09-15T18:10:26.514Z,14.23
2018-09-15T18:12:54.734Z,7.30
2018-09-15T18:15:22.944Z,8.60
2018-09-15T18:17:51.183Z,7.63
2018-09-15T18:20:19.380Z,10.17
2018-09-15T18:22:47.623Z,9.87
2018-09-15T18:25:15.857Z,7.13
2018-09-15T18:27:44.085Z,6.93
2018-09-15T18:30:12.348Z,8.00
2018-09-15T18:32:40.533Z,9.90
2018-09-15T18:35:08.743Z,12.13
2018-09-15T18:37:36.931Z,9.20
2018-09-15T18:40:05.199Z,7.90
2018-09-15T18:42:33.397Z,7.70
2018-09-15T18:45:01.620Z,8.00
2018-09-15T18:47:29.953Z,35.43
2018-09-15T18:49:58.208Z,57.60
2018-09-15T18:52:26.389Z,43.90
2018-09-15T18:54:54.657Z,21.03
2018-09-15T18:57:22.882Z,15.50
2018-09-15T18:59:51.213Z,12.53
2018-09-15T19:02:19.409Z,13.00
2018-09-15T19:04:47.614Z,8.63
2018-09-15T19:07:15.845Z,7.57
2018-09-15T19:09:44.091Z,8.80
2018-09-15T19:12:12.382Z,9.70
2018-09-15T19:14:40.671Z,9.03
2018-09-15T19:17:08.834Z,9.60
2018-09-15T19:19:37.078Z,10.90
2018-09-15T19:22:05.343Z,8.80
2018-09-15T19:24:33.609Z,10.00
2018-09-15T19:27:01.873Z,10.33
2018-09-15T19:29:31.242Z,9.30
2018-09-15T19:31:59.442Z,9.83
2018-09-15T19:34:27.641Z,9.57
2018-09-15T19:36:55.809Z,8.97
2018-09-15T19:39:24.054Z,9.60
2018-09-15T19:41:52.258Z,8.73
2018-09-15T19:44:20.465Z,9.37
2018-09-15T19:46:48.703Z,9.43
2018-09-15T19:49:16.917Z,10.20
2018-09-15T19:51:45.093Z,9.67
2018-09-15T19:54:13.325Z,11.23
2018-09-15T19:56:41.642Z,8.30
2018-09-15T19:59:09.896Z,11.77
2018-09-15T20:01:38.152Z,7.30
2018-09-15T20:04:06.433Z,7.60
2018-09-15T20:06:34.721Z,11.70
2018-09-15T20:09:03.292Z,15.77
2018-09-15T20:11:31.512Z,10.67
2018-09-15T20:13:59.717Z,12.70
2018-09-15T20:16:26.612Z,10.30
2018-09-15T20:18:53.440Z,9.43
2018-09-15T20:21:20.298Z,10.43
2018-09-15T20:23:48.478Z,11.93
2018-09-15T20:26:16.724Z,9.87
2018-09-15T20:28:44.913Z,8.83
2018-09-15T20:31:13.221Z,8.80
2018-09-15T20:33:41.427Z,18.77
2018-09-15T20:36:09.638Z,8.90
2018-09-15T20:38:37.837Z,8.43
2018-09-15T20:41:06.690Z,12.40
2018-09-15T20:43:34.893Z,10.30
2018-09-15T20:46:03.110Z,10.80
2018-09-15T20:48:31.297Z,9.83
2018-09-15T20:50:59.605Z,10.40
2018-09-15T20:53:27.815Z,8.53
2018-09-15T20:55:56.022Z,10.37
2018-09-15T20:58:24.193Z,9.77
2018-09-15T21:00:52.619Z,10.50
2018-09-15T21:03:20.816Z,9.87
2018-09-15T21:05:49.069Z,13.03
2018-09-15T21:08:17.369Z,9.57
2018-09-15T21:10:45.758Z,10.27
2018-09-15T21:13:13.981Z,9.07
2018-09-15T21:15:42.285Z,12.97
2018-09-15T21:18:10.529Z,9.60
2018-09-15T21:20:38.721Z,10.10
2018-09-15T21:23:07.248Z,8.83
2018-09-15T21:25:35.453Z,9.47
2018-09-15T21:28:03.718Z,11.20
2018-09-15T21:30:31.906Z,13.57
2018-09-15T21:33:00.266Z,10.00
2018-09-15T21:35:28.833Z,9.87
2018-09-15T21:37:57.059Z,12.40
2018-09-15T21:40:25.948Z,9.70
2018-09-15T21:42:54.243Z,10.10
2018-09-15T21:45:22.509Z,11.90
2018-09-15T21:47:50.775Z,16.50
2018-09-15T21:50:18.949Z,10.13
2018-09-15T21:52:47.293Z,9.20
2018-09-15T21:55:15.477Z,13.70
2018-09-15T21:57:43.724Z,14.03
2018-09-15T22:00:12.309Z,14.93
2018-09-15T22:02:40.567Z,12.10
2018-09-15T22:05:08.766Z,10.07
2018-09-15T22:07:37.090Z,10.60
2018-09-15T22:10:05.303Z,11.07
2018-09-15T22:12:33.515Z,12.43
2018-09-15T22:15:01.703Z,14.90
2018-09-15T22:17:29.961Z,11.20
2018-09-15T22:19:58.161Z,10.13
2018-09-15T22:22:26.550Z,15.10
2018-09-15T22:24:54.649Z,12.43
2018-09-15T22:27:22.865Z,11.57
2018-09-15T22:29:51.047Z,13.10
2018-09-15T22:32:19.260Z,10.47
2018-09-15T22:34:47.485Z,9.47
2018-09-15T22:37:15.681Z,12.20
2018-09-15T22:39:43.900Z,12.37
2018-09-15T22:42:12.093Z,11.50
2018-09-15T22:44:40.293Z,10.37
2018-09-15T22:47:08.473Z,12.47
2018-09-15T22:49:36.695Z,11.17
2018-09-15T22:52:04.937Z,12.90
2018-09-15T22:54:33.137Z,13.13
2018-09-15T22:57:01.313Z,12.57
2018-09-15T22:59:29.545Z,14.03
2018-09-15T23:01:57.717Z,12.10
2018-09-15T23:04:25.956Z,13.40
2018-09-15T23:06:54.188Z,14.03
2018-09-15T23:09:22.398Z,13.53
2018-09-15T23:11:50.560Z,14.53
2018-09-15T23:14:18.760Z,14.47
2018-09-15T23:16:46.933Z,14.23
2018-09-15T23:19:15.298Z,14.50
2018-09-15T23:21:43.484Z,14.20
2018-09-15T23:24:11.697Z,13.53
2018-09-15T23:26:39.887Z,12.70
2018-09-15T23:29:08.105Z,11.23
2018-09-15T23:31:36.301Z,22.23
2018-09-15T23:34:04.513Z,15.53
2018-09-15T23:36:32.688Z,16.33
2018-09-15T23:39:00.936Z,14.53
2018-09-15T23:41:29.120Z,22.00
2018-09-15T23:43:57.335Z,13.67
2018-09-15T23:46:25.533Z,13.67
2018-09-15T23:48:53.730Z,12.50
2018-09-15T23:51:21.894Z,14.77
2018-09-15T23:53:50.109Z,12.30
2018-09-15T23:56:18.321Z,11.77
2018-09-15T23:58:46.524Z,11.73
